sensor_id;sensor_type;location;lat;lon;timestamp;pressure;altitude;pressure_sealevel;temperature;humidity
31005;BME280;17676;52.254;4.490;2023-05-29T00:00:12;102624.81;;;12.82;100.00
31005;BME280;17676;52.254;4.490;2023-05-29T00:02:48;102624.81;;;12.82;100.00
31005;BME280;17676;52.254;4.490;2023-05-29T00:05:14;102619.31;;;12.68;100.00
31005;BME280;17676;52.254;4.490;2023-05-29T00:07:41;102627.19;;;12.55;100.00
31005;BME280;17676;52.254;4.490;2023-05-29T00:10:07;102617.19;;;12.55;100.00
31005;BME280;17676;52.254;4.490;2023-05-29T00:12:34;102619.22;;;12.53;100.00
31005;BME280;17676;52.254;4.490;2023-05-29T00:15:00;102627.66;;;12.58;100.00
31005;BME280;17676;52.254;4.490;2023-05-29T00:17:25;102608.84;;;12.57;100.00
31005;BME280;17676;52.254;4.490;2023-05-29T00:19:51;102625.63;;;12.60;100.00
31005;BME280;17676;52.254;4.490;2023-05-29T00:22:17;102638.53;;;12.58;100.00
31005;BME280;17676;52.254;4.490;2023-05-29T00:24:43;102644.00;;;12.81;100.00
31005;BME280;17676;52.254;4.490;2023-05-29T00:27:09;102633.28;;;12.57;100.00
31005;BME280;17676;52.254;4.490;2023-05-29T00:29:36;102625.94;;;12.35;100.00
31005;BME280;17676;52.254;4.490;2023-05-29T00:32:01;102640.16;;;12.37;100.00
31005;BME280;17676;52.254;4.490;2023-05-29T00:34:27;102649.47;;;12.42;100.00
31005;BME280;17676;52.254;4.490;2023-05-29T00:36:52;102657.63;;;12.42;100.00
31005;BME280;17676;52.254;4.490;2023-05-29T00:39:19;102660.84;;;12.46;100.00
31005;BME280;17676;52.254;4.490;2023-05-29T00:41:45;102655.63;;;12.36;100.00
31005;BME280;17676;52.254;4.490;2023-05-29T00:44:11;102652.25;;;12.26;100.00
31005;BME280;17676;52.254;4.490;2023-05-29T00:46:36;102637.34;;;12.14;100.00
31005;BME280;17676;52.254;4.490;2023-05-29T00:49:04;102642.22;;;12.35;100.00
31005;BME280;17676;52.254;4.490;2023-05-29T00:51:31;102650.53;;;12.33;100.00
31005;BME280;17676;52.254;4.490;2023-05-29T00:53:58;102656.81;;;12.34;100.00
31005;BME280;17676;52.254;4.490;2023-05-29T00:56:25;102653.28;;;12.25;100.00
31005;BME280;17676;52.254;4.490;2023-05-29T00:58:51;102659.41;;;12.27;100.00
31005;BME280;17676;52.254;4.490;2023-05-29T01:01:17;102651.44;;;12.18;100.00
31005;BME280;17676;52.254;4.490;2023-05-29T01:03:43;102655.53;;;12.14;100.00
31005;BME280;17676;52.254;4.490;2023-05-29T01:06:10;102660.91;;;12.30;100.00
31005;BME280;17676;52.254;4.490;2023-05-29T01:08:36;102660.81;;;12.07;100.00
31005;BME280;17676;52.254;4.490;2023-05-29T01:11:11;102662.81;;;12.13;100.00
31005;BME280;17676;52.254;4.490;2023-05-29T01:13:39;102659.06;;;12.22;100.00
31005;BME280;17676;52.254;4.490;2023-05-29T01:16:16;102648.91;;;12.16;100.00
31005;BME280;17676;52.254;4.490;2023-05-29T01:22:08;102660.97;;;12.14;100.00
31005;BME280;17676;52.254;4.490;2023-05-29T01:27:10;102659.44;;;12.11;100.00
31005;BME280;17676;52.254;4.490;2023-05-29T01:29:37;102655.69;;;12.12;100.00
31005;BME280;17676;52.254;4.490;2023-05-29T01:32:04;102661.75;;;12.30;100.00
31005;BME280;17676;52.254;4.490;2023-05-29T01:34:30;102660.81;;;12.07;100.00
31005;BME280;17676;52.254;4.490;2023-05-29T01:36:56;102658.47;;;11.96;100.00
31005;BME280;17676;52.254;4.490;2023-05-29T01:39:22;102664.19;;;12.01;100.00
31005;BME280;17676;52.254;4.490;2023-05-29T01:41:49;102672.03;;;11.96;100.00
31005;BME280;17676;52.254;4.490;2023-05-29T01:44:15;102683.19;;;12.01;100.00
31005;BME280;17676;52.254;4.490;2023-05-29T01:46:42;102683.88;;;12.11;100.00
31005;BME280;17676;52.254;4.490;2023-05-29T01:49:10;102683.19;;;12.01;100.00
31005;BME280;17676;52.254;4.490;2023-05-29T01:51:36;102684.56;;;11.97;100.00
31005;BME280;17676;52.254;4.490;2023-05-29T01:54:02;102676.75;;;11.94;100.00
31005;BME280;17676;52.254;4.490;2023-05-29T01:56:28;102689.34;;;11.87;100.00
31005;BME280;17676;52.254;4.490;2023-05-29T01:58:55;102666.44;;;11.90;100.00
31005;BME280;17676;52.254;4.490;2023-05-29T02:01:22;102691.34;;;11.93;100.00
31005;BME280;17676;52.254;4.490;2023-05-29T02:03:47;102695.09;;;11.76;100.00
31005;BME280;17676;52.254;4.490;2023-05-29T02:06:13;102704.25;;;11.99;100.00
31005;BME280;17676;52.254;4.490;2023-05-29T02:08:39;102700.84;;;11.89;100.00
31005;BME280;17676;52.254;4.490;2023-05-29T02:11:04;102702.53;;;11.90;100.00
31005;BME280;17676;52.254;4.490;2023-05-29T02:13:31;102708.66;;;11.84;100.00
31005;BME280;17676;52.254;4.490;2023-05-29T02:15:56;102704.75;;;11.87;100.00
31005;BME280;17676;52.254;4.490;2023-05-29T02:18:22;102690.69;;;11.83;100.00
31005;BME280;17676;52.254;4.490;2023-05-29T02:20:47;102683.25;;;11.69;100.00
31005;BME280;17676;52.254;4.490;2023-05-29T02:23:13;102689.69;;;11.60;100.00
31005;BME280;17676;52.254;4.490;2023-05-29T02:25:38;102693.59;;;11.74;100.00
31005;BME280;17676;52.254;4.490;2023-05-29T02:28:05;102679.16;;;11.57;100.00
31005;BME280;17676;52.254;4.490;2023-05-29T02:30:30;102701.91;;;11.72;100.00
31005;BME280;17676;52.254;4.490;2023-05-29T02:32:56;102697.09;;;11.58;100.00
31005;BME280;17676;52.254;4.490;2023-05-29T02:35:22;102695.25;;;11.51;100.00
31005;BME280;17676;52.254;4.490;2023-05-29T02:37:49;102705.25;;;11.50;100.00
31005;BME280;17676;52.254;4.490;2023-05-29T02:40:14;102720.88;;;11.64;100.00
31005;BME280;17676;52.254;4.490;2023-05-29T02:42:40;102704.41;;;11.50;100.00
31005;BME280;17676;52.254;4.490;2023-05-29T02:45:05;102712.38;;;11.59;100.00
31005;BME280;17676;52.254;4.490;2023-05-29T02:47:31;102712.72;;;11.56;100.00
31005;BME280;17676;52.254;4.490;2023-05-29T02:49:57;102709.50;;;11.53;100.00
31005;BME280;17676;52.254;4.490;2023-05-29T02:52:22;102706.41;;;11.40;100.00
31005;BME280;17676;52.254;4.490;2023-05-29T02:54:48;102703.91;;;11.46;100.00
31005;BME280;17676;52.254;4.490;2023-05-29T02:57:14;102712.69;;;11.40;100.00
31005;BME280;17676;52.254;4.490;2023-05-29T02:59:39;102722.88;;;11.38;100.00
31005;BME280;17676;52.254;4.490;2023-05-29T03:02:05;102726.25;;;11.32;100.00
31005;BME280;17676;52.254;4.490;2023-05-29T03:04:31;102732.72;;;11.47;100.00
31005;BME280;17676;52.254;4.490;2023-05-29T03:06:56;102714.91;;;11.29;100.00
31005;BME280;17676;52.254;4.490;2023-05-29T03:09:22;102715.75;;;11.45;100.00
31005;BME280;17676;52.254;4.490;2023-05-29T03:11:48;102726.94;;;11.42;100.00
31005;BME280;17676;52.254;4.490;2023-05-29T03:14:15;102707.63;;;11.45;100.00
31005;BME280;17676;52.254;4.490;2023-05-29T03:16:40;102707.28;;;11.40;100.00
31005;BME280;17676;52.254;4.490;2023-05-29T03:19:06;102714.41;;;11.49;100.00
31005;BME280;17676;52.254;4.490;2023-05-29T03:21:32;102712.75;;;11.64;100.00
31005;BME280;17676;52.254;4.490;2023-05-29T03:24:01;102704.75;;;11.55;100.00
31005;BME280;17676;52.254;4.490;2023-05-29T03:26:28;102693.03;;;11.30;100.00
31005;BME280;17676;52.254;4.490;2023-05-29T03:28:53;102692.03;;;11.39;100.00
31005;BME280;17676;52.254;4.490;2023-05-29T03:31:19;102706.41;;;11.40;100.00
31005;BME280;17676;52.254;4.490;2023-05-29T03:33:45;102711.16;;;11.30;100.00
31005;BME280;17676;52.254;4.490;2023-05-29T03:36:11;102720.34;;;11.37;100.00
31005;BME280;17676;52.254;4.490;2023-05-29T03:38:36;102709.31;;;11.30;100.00
31005;BME280;17676;52.254;4.490;2023-05-29T03:41:02;102725.75;;;11.37;100.00
31005;BME280;17676;52.254;4.490;2023-05-29T03:43:27;102715.22;;;11.34;100.00
31005;BME280;17676;52.254;4.490;2023-05-29T03:45:53;102714.38;;;11.41;100.00
31005;BME280;17676;52.254;4.490;2023-05-29T03:48:18;102712.34;;;11.35;100.00
31005;BME280;17676;52.254;4.490;2023-05-29T03:50:45;102708.94;;;11.33;100.00
31005;BME280;17676;52.254;4.490;2023-05-29T03:53:11;102717.47;;;11.38;100.00
31005;BME280;17676;52.254;4.490;2023-05-29T03:55:37;102716.75;;;11.36;100.00
31005;BME280;17676;52.254;4.490;2023-05-29T03:58:03;102712.69;;;11.32;100.00
31005;BME280;17676;52.254;4.490;2023-05-29T04:00:28;102713.69;;;11.23;100.00
31005;BME280;17676;52.254;4.490;2023-05-29T04:02:55;102725.91;;;11.35;100.00
31005;BME280;17676;52.254;4.490;2023-05-29T04:05:21;102727.59;;;11.36;100.00
31005;BME280;17676;52.254;4.490;2023-05-29T04:07:46;102709.09;;;11.16;100.00
31005;BME280;17676;52.254;4.490;2023-05-29T04:10:12;102732.00;;;11.45;100.00
31005;BME280;17676;52.254;4.490;2023-05-29T04:12:37;102715.06;;;11.27;100.00
31005;BME280;17676;52.254;4.490;2023-05-29T04:15:03;102728.47;;;11.37;100.00
31005;BME280;17676;52.254;4.490;2023-05-29T04:17:29;102724.22;;;11.26;100.00
31005;BME280;17676;52.254;4.490;2023-05-29T04:19:54;102722.81;;;11.06;100.00
31005;BME280;17676;52.254;4.490;2023-05-29T04:22:20;102719.44;;;11.20;100.00
31005;BME280;17676;52.254;4.490;2023-05-29T04:24:46;102714.34;;;11.17;100.00
31005;BME280;17676;52.254;4.490;2023-05-29T04:27:11;102732.72;;;11.47;100.00
31005;BME280;17676;52.254;4.490;2023-05-29T04:29:41;102719.31;;;11.46;100.00
31005;BME280;17676;52.254;4.490;2023-05-29T04:32:10;102743.22;;;11.58;100.00
31005;BME280;17676;52.254;4.490;2023-05-29T04:34:37;102733.03;;;11.44;100.00
31005;BME280;17676;52.254;4.490;2023-05-29T04:37:04;102728.28;;;11.54;100.00
31005;BME280;17676;52.254;4.490;2023-05-29T04:39:30;102748.00;;;11.72;100.00
31005;BME280;17676;52.254;4.490;2023-05-29T04:41:56;102732.41;;;11.66;100.00
31005;BME280;17676;52.254;4.490;2023-05-29T04:44:24;102750.72;;;11.80;100.00
31005;BME280;17676;52.254;4.490;2023-05-29T04:46:55;102758.53;;;11.91;100.00
31005;BME280;17676;52.254;4.490;2023-05-29T04:49:22;102758.88;;;11.88;100.00
31005;BME280;17676;52.254;4.490;2023-05-29T04:51:47;102747.69;;;11.91;100.00
31005;BME280;17676;52.254;4.490;2023-05-29T04:54:13;102750.03;;;11.94;100.00
31005;BME280;17676;52.254;4.490;2023-05-29T04:56:38;102758.53;;;11.99;100.00
31005;BME280;17676;52.254;4.490;2023-05-29T04:59:07;102745.78;;;11.92;100.00
31005;BME280;17676;52.254;4.490;2023-05-29T05:01:33;102760.56;;;11.97;100.00
31005;BME280;17676;52.254;4.490;2023-05-29T05:04:00;102757.00;;;12.13;100.00
31005;BME280;17676;52.254;4.490;2023-05-29T05:06:25;102768.00;;;12.35;100.00
31005;BME280;17676;52.254;4.490;2023-05-29T05:08:51;102757.66;;;12.23;100.00
31005;BME280;17676;52.254;4.490;2023-05-29T05:11:23;102744.25;;;12.05;100.00
31005;BME280;17676;52.254;4.490;2023-05-29T05:13:49;102739.38;;;12.01;100.00
31005;BME280;17676;52.254;4.490;2023-05-29T05:16:15;102747.81;;;12.22;100.00
31005;BME280;17676;52.254;4.490;2023-05-29T05:18:45;102746.59;;;12.32;100.00
31005;BME280;17676;52.254;4.490;2023-05-29T05:21:10;102733.72;;;12.18;100.00
31005;BME280;17676;52.254;4.490;2023-05-29T05:23:36;102731.69;;;12.20;100.00
31005;BME280;17676;52.254;4.490;2023-05-29T05:26:02;102741.16;;;12.32;100.00
31005;BME280;17676;52.254;4.490;2023-05-29T05:28:28;102740.97;;;12.50;100.00
31005;BME280;17676;52.254;4.490;2023-05-29T05:30:53;102734.00;;;12.47;100.00
31005;BME280;17676;52.254;4.490;2023-05-29T05:33:19;102739.06;;;12.50;100.00
31005;BME280;17676;52.254;4.490;2023-05-29T05:35:45;102758.00;;;12.74;100.00
31005;BME280;17676;52.254;4.490;2023-05-29T05:38:11;102744.84;;;12.55;100.00
31005;BME280;17676;52.254;4.490;2023-05-29T05:40:36;102743.97;;;12.63;100.00
31005;BME280;17676;52.254;4.490;2023-05-29T05:43:01;102737.06;;;12.91;100.00
31005;BME280;17676;52.254;4.490;2023-05-29T05:45:27;102748.75;;;12.91;100.00
31005;BME280;17676;52.254;4.490;2023-05-29T05:47:52;102749.44;;;13.01;100.00
31005;BME280;17676;52.254;4.490;2023-05-29T05:50:18;102739.69;;;13.15;100.00
31005;BME280;17676;52.254;4.490;2023-05-29T05:52:43;102752.06;;;13.17;100.00
31005;BME280;17676;52.254;4.490;2023-05-29T05:55:09;102759.78;;;13.36;100.00
31005;BME280;17676;52.254;4.490;2023-05-29T05:57:35;102735.34;;;13.28;100.00
31005;BME280;17676;52.254;4.490;2023-05-29T06:00:04;102734.63;;;13.34;100.00
31005;BME280;17676;52.254;4.490;2023-05-29T06:02:36;102728.38;;;13.34;100.00
31005;BME280;17676;52.254;4.490;2023-05-29T06:05:02;102733.53;;;13.43;100.00
31005;BME280;17676;52.254;4.490;2023-05-29T06:07:29;102734.75;;;13.41;100.00
31005;BME280;17676;52.254;4.490;2023-05-29T06:09:54;102743.34;;;13.52;100.00
31005;BME280;17676;52.254;4.490;2023-05-29T06:12:20;102739.59;;;13.53;100.00
31005;BME280;17676;52.254;4.490;2023-05-29T06:14:45;102721.84;;;13.43;100.00
31005;BME280;17676;52.254;4.490;2023-05-29T06:17:11;102728.09;;;13.43;100.00
31005;BME280;17676;52.254;4.490;2023-05-29T06:19:36;102726.75;;;13.62;100.00
31005;BME280;17676;52.254;4.490;2023-05-29T06:22:02;102726.59;;;13.63;100.00
31005;BME280;17676;52.254;4.490;2023-05-29T06:24:27;102737.19;;;13.95;100.00
31005;BME280;17676;52.254;4.490;2023-05-29T06:26:53;102728.47;;;14.22;100.00
31005;BME280;17676;52.254;4.490;2023-05-29T06:29:18;102716.88;;;14.20;100.00
31005;BME280;17676;52.254;4.490;2023-05-29T06:31:44;102711.28;;;14.36;100.00
31005;BME280;17676;52.254;4.490;2023-05-29T06:34:10;102715.44;;;14.61;100.00
31005;BME280;17676;52.254;4.490;2023-05-29T06:36:35;102702.63;;;14.47;100.00
31005;BME280;17676;52.254;4.490;2023-05-29T06:39:01;102717.00;;;14.85;100.00
31005;BME280;17676;52.254;4.490;2023-05-29T06:41:27;102712.28;;;14.94;100.00
31005;BME280;17676;52.254;4.490;2023-05-29T06:43:52;102700.19;;;14.82;100.00
31005;BME280;17676;52.254;4.490;2023-05-29T06:46:18;102708.78;;;15.00;100.00
31005;BME280;17676;52.254;4.490;2023-05-29T06:48:43;102703.50;;;15.48;100.00
31005;BME280;17676;52.254;4.490;2023-05-29T06:51:09;102707.28;;;15.96;100.00
31005;BME280;17676;52.254;4.490;2023-05-29T06:53:38;102689.56;;;15.85;100.00
31005;BME280;17676;52.254;4.490;2023-05-29T06:56:04;102707.31;;;16.57;100.00
31005;BME280;17676;52.254;4.490;2023-05-29T06:58:31;102703.47;;;17.59;100.00
31005;BME280;17676;52.254;4.490;2023-05-29T07:00:57;102691.25;;;17.55;100.00
31005;BME280;17676;52.254;4.490;2023-05-29T07:03:25;102672.63;;;17.18;100.00
31005;BME280;17676;52.254;4.490;2023-05-29T07:05:50;102687.03;;;17.65;100.00
31005;BME280;17676;52.254;4.490;2023-05-29T07:08:15;102694.22;;;17.66;100.00
31005;BME280;17676;52.254;4.490;2023-05-29T07:10:41;102686.41;;;16.84;100.00
31005;BME280;17676;52.254;4.490;2023-05-29T07:13:06;102703.75;;;16.02;100.00
31005;BME280;17676;52.254;4.490;2023-05-29T07:15:33;102703.78;;;15.81;100.00
31005;BME280;17676;52.254;4.490;2023-05-29T07:17:58;102698.22;;;15.47;100.00
31005;BME280;17676;52.254;4.490;2023-05-29T07:20:24;102730.00;;;16.24;100.00
31005;BME280;17676;52.254;4.490;2023-05-29T07:22:49;102722.47;;;16.05;100.00
31005;BME280;17676;52.254;4.490;2023-05-29T07:25:15;102719.63;;;16.81;100.00
31005;BME280;17676;52.254;4.490;2023-05-29T07:27:41;102716.09;;;17.47;100.00
31005;BME280;17676;52.254;4.490;2023-05-29T07:30:07;102713.34;;;17.47;100.00
31005;BME280;17676;52.254;4.490;2023-05-29T07:32:33;102702.56;;;17.39;100.00
31005;BME280;17676;52.254;4.490;2023-05-29T07:34:58;102707.88;;;17.47;100.00
31005;BME280;17676;52.254;4.490;2023-05-29T07:37:26;102712.13;;;18.27;100.00
31005;BME280;17676;52.254;4.490;2023-05-29T07:39:52;102709.59;;;17.61;100.00
31005;BME280;17676;52.254;4.490;2023-05-29T07:42:17;102703.81;;;17.36;100.00
31005;BME280;17676;52.254;4.490;2023-05-29T07:44:43;102697.34;;;16.84;100.00
31005;BME280;17676;52.254;4.490;2023-05-29T07:47:16;102695.81;;;17.35;100.00
31005;BME280;17676;52.254;4.490;2023-05-29T07:49:41;102704.31;;;18.18;100.00
31005;BME280;17676;52.254;4.490;2023-05-29T07:52:07;102702.66;;;17.91;100.00
31005;BME280;17676;52.254;4.490;2023-05-29T07:54:32;102682.59;;;18.23;100.00
31005;BME280;17676;52.254;4.490;2023-05-29T07:57:01;102688.75;;;17.60;100.00
31005;BME280;17676;52.254;4.490;2023-05-29T07:59:28;102701.19;;;16.96;100.00
31005;BME280;17676;52.254;4.490;2023-05-29T08:01:54;102702.34;;;17.34;100.00
31005;BME280;17676;52.254;4.490;2023-05-29T08:04:23;102701.63;;;17.06;100.00
31005;BME280;17676;52.254;4.490;2023-05-29T08:06:49;102691.47;;;18.25;100.00
31005;BME280;17676;52.254;4.490;2023-05-29T08:09:14;102684.72;;;17.95;100.00
31005;BME280;17676;52.254;4.490;2023-05-29T08:11:40;102697.16;;;17.91;100.00
31005;BME280;17676;52.254;4.490;2023-05-29T08:14:14;102695.34;;;19.32;100.00
31005;BME280;17676;52.254;4.490;2023-05-29T08:16:40;102693.94;;;19.78;100.00
31005;BME280;17676;52.254;4.490;2023-05-29T08:19:05;102673.78;;;19.29;100.00
31005;BME280;17676;52.254;4.490;2023-05-29T08:21:31;102678.38;;;18.90;100.00
31005;BME280;17676;52.254;4.490;2023-05-29T08:23:57;102680.06;;;19.91;100.00
31005;BME280;17676;52.254;4.490;2023-05-29T08:26:22;102684.19;;;19.82;100.00
31005;BME280;17676;52.254;4.490;2023-05-29T08:28:48;102682.31;;;19.45;100.00
31005;BME280;17676;52.254;4.490;2023-05-29T08:31:13;102682.38;;;19.39;100.00
31005;BME280;17676;52.254;4.490;2023-05-29T08:33:42;102700.22;;;19.16;100.00
31005;BME280;17676;52.254;4.490;2023-05-29T08:36:08;102696.53;;;18.02;100.00
31005;BME280;17676;52.254;4.490;2023-05-29T08:38:34;102700.06;;;16.77;100.00
31005;BME280;17676;52.254;4.490;2023-05-29T08:40:59;102715.78;;;16.69;100.00
31005;BME280;17676;52.254;4.490;2023-05-29T08:43:32;102712.88;;;16.15;100.00
31005;BME280;17676;52.254;4.490;2023-05-29T08:46:02;102721.41;;;16.61;100.00
31005;BME280;17676;52.254;4.490;2023-05-29T08:48:29;102711.50;;;17.67;100.00
31005;BME280;17676;52.254;4.490;2023-05-29T08:50:56;102708.34;;;18.15;100.00
31005;BME280;17676;52.254;4.490;2023-05-29T08:53:22;102720.78;;;18.18;100.00
31005;BME280;17676;52.254;4.490;2023-05-29T08:55:49;102704.72;;;17.43;100.00
31005;BME280;17676;52.254;4.490;2023-05-29T08:58:22;102716.16;;;17.92;100.00
31005;BME280;17676;52.254;4.490;2023-05-29T09:00:49;102708.47;;;17.36;100.00
31005;BME280;17676;52.254;4.490;2023-05-29T09:03:15;102724.56;;;18.36;100.00
31005;BME280;17676;52.254;4.490;2023-05-29T09:05:41;102708.56;;;18.97;100.00
31005;BME280;17676;52.254;4.490;2023-05-29T09:08:08;102709.56;;;18.32;100.00
31005;BME280;17676;52.254;4.490;2023-05-29T09:10:35;102717.41;;;18.42;100.00
31005;BME280;17676;52.254;4.490;2023-05-29T09:13:00;102704.03;;;19.60;100.00
31005;BME280;17676;52.254;4.490;2023-05-29T09:15:26;102693.63;;;20.89;100.00
31005;BME280;17676;52.254;4.490;2023-05-29T09:17:56;102682.94;;;20.27;100.00
31005;BME280;17676;52.254;4.490;2023-05-29T09:20:25;102690.81;;;18.99;100.00
31005;BME280;17676;52.254;4.490;2023-05-29T09:23:05;102683.44;;;19.69;100.00
31005;BME280;17676;52.254;4.490;2023-05-29T09:25:33;102682.47;;;19.81;100.00
31005;BME280;17676;52.254;4.490;2023-05-29T09:28:06;102688.03;;;19.99;100.00
31005;BME280;17676;52.254;4.490;2023-05-29T09:30:46;102679.69;;;19.63;100.00
31005;BME280;17676;52.254;4.490;2023-05-29T09:33:16;102683.53;;;19.18;100.00
31005;BME280;17676;52.254;4.490;2023-05-29T09:35:43;102699.00;;;19.12;100.00
31005;BME280;17676;52.254;4.490;2023-05-29T09:38:10;102696.78;;;19.34;100.00
31005;BME280;17676;52.254;4.490;2023-05-29T09:40:37;102682.75;;;19.98;100.00
31005;BME280;17676;52.254;4.490;2023-05-29T09:43:03;102682.63;;;20.53;100.00
31005;BME280;17676;52.254;4.490;2023-05-29T09:45:33;102681.03;;;20.46;100.00
31005;BME280;17676;52.254;4.490;2023-05-29T09:47:58;102680.56;;;19.57;100.00
31005;BME280;17676;52.254;4.490;2023-05-29T09:50:27;102675.31;;;19.56;100.00
31005;BME280;17676;52.254;4.490;2023-05-29T09:52:55;102678.66;;;20.31;100.00
31005;BME280;17676;52.254;4.490;2023-05-29T09:55:23;102667.47;;;21.16;100.00
31005;BME280;17676;52.254;4.490;2023-05-29T09:57:53;102671.09;;;22.73;100.00
31005;BME280;17676;52.254;4.490;2023-05-29T10:00:19;102644.25;;;22.96;100.00
31005;BME280;17676;52.254;4.490;2023-05-29T10:02:45;102641.03;;;22.02;100.00
31005;BME280;17676;52.254;4.490;2023-05-29T10:05:10;102633.84;;;21.78;100.00
31005;BME280;17676;52.254;4.490;2023-05-29T10:07:44;102630.63;;;20.99;100.00
31005;BME280;17676;52.254;4.490;2023-05-29T10:10:13;102622.78;;;21.55;100.00
31005;BME280;17676;52.254;4.490;2023-05-29T10:12:44;102617.06;;;21.91;100.00
31005;BME280;17676;52.254;4.490;2023-05-29T10:15:14;102620.59;;;21.46;100.00
31005;BME280;17676;52.254;4.490;2023-05-29T10:17:48;102637.19;;;22.49;100.00
31005;BME280;17676;52.254;4.490;2023-05-29T10:20:16;102617.06;;;23.83;100.00
31005;BME280;17676;52.254;4.490;2023-05-29T10:22:45;102621.59;;;24.05;100.00
31005;BME280;17676;52.254;4.490;2023-05-29T10:25:13;102618.69;;;22.38;100.00
31005;BME280;17676;52.254;4.490;2023-05-29T10:27:42;102628.66;;;22.90;100.00
31005;BME280;17676;52.254;4.490;2023-05-29T10:35:54;102622.44;;;22.21;100.00
31005;BME280;17676;52.254;4.490;2023-05-29T10:38:21;102630.97;;;21.73;100.00
31005;BME280;17676;52.254;4.490;2023-05-29T10:40:46;102617.91;;;21.92;100.00
31005;BME280;17676;52.254;4.490;2023-05-29T10:43:31;102617.19;;;22.08;100.00
31005;BME280;17676;52.254;4.490;2023-05-29T10:46:02;102608.78;;;22.03;100.00
31005;BME280;17676;52.254;4.490;2023-05-29T10:48:35;102615.88;;;21.35;100.00
31005;BME280;17676;52.254;4.490;2023-05-29T10:51:05;102610.19;;;22.79;100.00
31005;BME280;17676;52.254;4.490;2023-05-29T10:53:32;102606.84;;;22.03;100.00
31005;BME280;17676;52.254;4.490;2023-05-29T10:56:01;102592.09;;;22.32;100.00
31005;BME280;17676;52.254;4.490;2023-05-29T10:58:31;102619.63;;;22.67;100.00
31005;BME280;17676;52.254;4.490;2023-05-29T11:00:56;102600.03;;;21.94;100.00
31005;BME280;17676;52.254;4.490;2023-05-29T11:03:30;102589.00;;;21.83;100.00
31005;BME280;17676;52.254;4.490;2023-05-29T11:06:01;102603.50;;;20.85;100.00
31005;BME280;17676;52.254;4.490;2023-05-29T11:08:47;102595.72;;;21.11;100.00
31005;BME280;17676;52.254;4.490;2023-05-29T11:11:29;102590.72;;;20.25;100.00
31005;BME280;17676;52.254;4.490;2023-05-29T11:13:57;102584.34;;;20.60;100.00
31005;BME280;17676;52.254;4.490;2023-05-29T11:18:55;102599.41;;;19.79;100.00
31005;BME280;17676;52.254;4.490;2023-05-29T11:23:51;102585.13;;;20.31;100.00
31005;BME280;17676;52.254;4.490;2023-05-29T11:26:19;102591.56;;;20.43;100.00
31005;BME280;17676;52.254;4.490;2023-05-29T11:28:45;102599.88;;;20.84;100.00
31005;BME280;17676;52.254;4.490;2023-05-29T11:31:12;102601.75;;;20.00;100.00
31005;BME280;17676;52.254;4.490;2023-05-29T11:33:40;102609.59;;;19.54;100.00
31005;BME280;17676;52.254;4.490;2023-05-29T11:36:11;102608.75;;;19.96;100.00
31005;BME280;17676;52.254;4.490;2023-05-29T11:38:37;102611.78;;;19.70;100.00
31005;BME280;17676;52.254;4.490;2023-05-29T11:41:02;102619.50;;;19.80;100.00
31005;BME280;17676;52.254;4.490;2023-05-29T11:43:28;102603.41;;;19.34;100.00
31005;BME280;17676;52.254;4.490;2023-05-29T11:45:54;102613.28;;;19.66;100.00
31005;BME280;17676;52.254;4.490;2023-05-29T11:48:19;102592.75;;;19.69;100.00
31005;BME280;17676;52.254;4.490;2023-05-29T11:50:45;102603.56;;;19.39;100.00
31005;BME280;17676;52.254;4.490;2023-05-29T11:53:11;102623.72;;;19.27;100.00
31005;BME280;17676;52.254;4.490;2023-05-29T11:55:37;102600.22;;;19.62;100.00
31005;BME280;17676;52.254;4.490;2023-05-29T11:58:04;102606.94;;;19.41;100.00
31005;BME280;17676;52.254;4.490;2023-05-29T12:00:35;102613.03;;;19.12;100.00
31005;BME280;17676;52.254;4.490;2023-05-29T12:03:02;102608.41;;;19.44;100.00
31005;BME280;17676;52.254;4.490;2023-05-29T12:05:32;102613.34;;;19.60;100.00
31005;BME280;17676;52.254;4.490;2023-05-29T12:07:58;102604.47;;;20.25;100.00
31005;BME280;17676;52.254;4.490;2023-05-29T12:10:26;102608.09;;;20.01;100.00
31005;BME280;17676;52.254;4.490;2023-05-29T12:12:57;102598.13;;;20.00;100.00
31005;BME280;17676;52.254;4.490;2023-05-29T12:15:23;102604.41;;;19.64;100.00
31005;BME280;17676;52.254;4.490;2023-05-29T12:17:50;102607.53;;;19.92;100.00
31005;BME280;17676;52.254;4.490;2023-05-29T12:20:17;102600.28;;;19.80;100.00
31005;BME280;17676;52.254;4.490;2023-05-29T12:22:44;102613.38;;;19.78;100.00
31005;BME280;17676;52.254;4.490;2023-05-29T12:25:13;102599.75;;;20.07;100.00
31005;BME280;17676;52.254;4.490;2023-05-29T12:27:40;102595.06;;;19.72;100.00
31005;BME280;17676;52.254;4.490;2023-05-29T12:30:09;102598.97;;;19.58;100.00
31005;BME280;17676;52.254;4.490;2023-05-29T12:32:37;102594.38;;;19.76;100.00
31005;BME280;17676;52.254;4.490;2023-05-29T12:35:10;102596.69;;;19.97;100.00
31005;BME280;17676;52.254;4.490;2023-05-29T12:37:44;102586.56;;;19.73;100.00
31005;BME280;17676;52.254;4.490;2023-05-29T12:40:18;102602.28;;;19.66;100.00
31005;BME280;17676;52.254;4.490;2023-05-29T12:42:44;102591.00;;;19.25;100.00
31005;BME280;17676;52.254;4.490;2023-05-29T12:45:12;102591.63;;;19.27;100.00
31005;BME280;17676;52.254;4.490;2023-05-29T12:47:53;102586.47;;;19.37;100.00
31005;BME280;17676;52.254;4.490;2023-05-29T12:52:46;102601.16;;;19.25;100.00
31005;BME280;17676;52.254;4.490;2023-05-29T12:55:11;102591.19;;;19.30;100.00
31005;BME280;17676;52.254;4.490;2023-05-29T12:57:37;102592.75;;;19.13;100.00